Airfield :
LOGIN :

Register | Disclaimer

   EN    FR    IT 

 










Legend :    VFR   Marginal VFR   IFR   Intensive IFR   Very Intensive IFR
Visi :
Ceiling :
>= 8 km
>= 3000ft
5 to 8 km
1000 to 3000 ft
1500m to 5 km
500 to 1000 ft
800 to 1500m
200 to 500 ft
< 800m
< 200 ft
Symbols :   Thunderstorms  Fog  Heavy snow  Heavy precipitations  Wind > 20 kt
SIGMETs :     Misc.  Thunderstorms  Icing  Turbulence  Mountain Waves  Volcanic Ashes






- Airport Elevation : 1830 ft


EBLB - Butgenbach Elsenborn

CURRENT METAR :
  • 021255Z AUTO 28006KT 9999 -RA BKN015/// 14/13 Q1013 WHT

EXPIRED METARs :
  • 021225Z AUTO 22005KT 9999 BKN015/// BKN043/// BKN078/// 16/13 Q1013 WHT
  • 021155Z AUTO 24006KT 9999 SCT013/// BKN063/// BKN086/// 15/12 Q1013 GRN
  • 021143Z AUTO 23006KT 9999 FEW014/// BKN061/// 15/13 Q1013 BLU
  • 021125Z AUTO 23006KT 9999 OVC020/// 14/13 Q1013 WHT
  • 021103Z AUTO 24005KT 9999 DZ FEW007/// OVC019/// 13/13 Q1013 WHT
  • 021055Z AUTO 24005KT 9999 FEW007/// OVC025/// 14/13 Q1013 BLU
  • 021025Z AUTO 25005KT 9999 BKN007/// BKN027/// OVC049/// 14/13 Q1013 GRN

Expired Forecast.



MET'MAP, your aeronautical weather chart ! - Copyright ORBIFLY December 2007 - Disclaimer

ORBIFLY MET'MAP TEAM :

Programming & Development : Alexandra Zaïnal
Concept & original design : Baudouin d'Aumeries
Assistance for programming : Marc-Olivier Méhu
Technical & hardware support : Manuel Goepfert

Contact : metmap@orbifly.com




SOURCES & CREDITS :

   NOAA